Time;durP1;ratioP1;P1;durP2;ratioP2;P2;SDS_P1;SDS_P2;PMS_P1;PMS_P2;Temp;Humidity;BMP_temperature;BMP_pressure;BME280_temperature;BME280_humidity;BME280_pressure;Samples;Min_cycle;Max_cycle;Signal;HPM_P1;HPM_P2
2023/10/29 00:02:16;;;;;;;3.92;0.80;;;;;;;21.13;41.91;98521.91;4926210;28;20035;-91
2023/10/29 00:04:42;;;;;;;6.07;1.10;;;;;;;21.12;41.51;98528.22;4959099;28;20114;-90
2023/10/29 00:07:08;;;;;;;3.97;1.00;;;;;;;21.10;42.07;98530.25;4942156;28;20062;-89
2023/10/29 00:09:34;;;;;;;5.00;1.02;;;;;;;21.09;42.26;98528.59;4941987;28;20122;-90
2023/10/29 00:12:00;;;;;;;3.42;0.90;;;;;;;21.08;41.87;98523.47;4958270;28;20035;-90
2023/10/29 00:14:26;;;;;;;3.05;0.90;;;;;;;21.00;41.91;98516.50;4958103;28;20026;-90
2023/10/29 00:16:53;;;;;;;3.40;1.00;;;;;;;21.05;42.27;98523.88;4958138;28;20035;-89
2023/10/29 00:19:19;;;;;;;2.70;0.80;;;;;;;21.10;42.34;98538.22;4942177;28;20050;-89
2023/10/29 00:21:45;;;;;;;2.75;0.88;;;;;;;21.09;41.93;98549.81;4941973;28;20027;-91
2023/10/29 00:24:10;;;;;;;3.58;1.10;;;;;;;21.04;41.91;98549.56;4942140;28;20031;-90
2023/10/29 00:26:36;;;;;;;2.40;0.88;;;;;;;21.01;41.85;98546.50;4942486;28;20066;-89
2023/10/29 00:29:03;;;;;;;3.25;0.90;;;;;;;21.00;41.87;98550.97;4957122;28;20098;-89
2023/10/29 00:31:29;;;;;;;3.22;0.77;;;;;;;20.92;42.12;98545.78;4958216;28;20038;-89
2023/10/29 00:33:54;;;;;;;2.88;0.90;;;;;;;20.84;42.65;98543.25;4941914;28;20026;-89
2023/10/29 00:36:20;;;;;;;8.45;1.10;;;;;;;20.89;42.11;98560.25;4941706;28;20066;-86
2023/10/29 00:38:46;;;;;;;6.78;1.27;;;;;;;20.86;41.85;98552.66;4957471;28;20030;-86
2023/10/29 00:41:12;;;;;;;4.60;1.02;;;;;;;20.73;42.36;98553.34;4973392;28;20035;-87
2023/10/29 00:43:40;;;;;;;3.17;0.90;;;;;;;20.71;42.53;98560.66;4941529;28;20039;-86
2023/10/29 00:46:05;;;;;;;6.15;1.20;;;;;;;20.65;42.43;98558.75;4942432;28;20031;-87
2023/10/29 00:48:32;;;;;;;4.70;1.10;;;;;;;20.60;42.28;98559.28;4940962;28;20217;-88
2023/10/29 00:50:58;;;;;;;4.78;1.00;;;;;;;20.57;42.44;98562.31;4925897;28;20027;-88
2023/10/29 00:53:24;;;;;;;4.15;1.20;;;;;;;20.56;42.53;98575.75;4957568;28;20042;-87
2023/10/29 00:55:50;;;;;;;3.78;1.20;;;;;;;20.53;42.68;98573.47;4957491;28;20122;-88
2023/10/29 00:58:16;;;;;;;4.05;1.08;;;;;;;20.42;42.77;98564.97;4957192;28;20383;-88
2023/10/29 01:00:42;;;;;;;5.32;1.10;;;;;;;20.42;42.95;98572.94;4957148;28;20026;-89
2023/10/29 01:03:07;;;;;;;3.72;0.90;;;;;;;20.38;43.03;98581.44;4941162;28;20041;-88
2023/10/29 01:05:33;;;;;;;4.07;0.95;;;;;;;20.33;42.82;98589.94;4940996;28;20106;-87
2023/10/29 01:08:00;;;;;;;2.80;0.82;;;;;;;20.21;42.94;98572.88;4956787;28;20030;-86
2023/10/29 01:10:26;;;;;;;2.58;0.93;;;;;;;20.20;42.90;98581.81;4923777;29;20042;-89
2023/10/29 01:12:52;;;;;;;3.33;0.90;;;;;;;20.15;42.85;98576.25;4938194;29;20035;-89
2023/10/29 01:15:17;;;;;;;2.08;0.90;;;;;;;20.14;43.06;98579.88;4921906;29;20023;-88
2023/10/29 01:17:43;;;;;;;5.03;1.65;;;;;;;20.09;43.25;98584.91;4937910;29;20046;-87
2023/10/29 01:20:11;;;;;;;3.13;0.82;;;;;;;20.06;43.05;98594.84;4938245;29;20090;-87
2023/10/29 01:22:37;;;;;;;3.95;1.00;;;;;;;19.96;43.41;98583.72;4921414;29;20031;-87
2023/10/29 01:25:09;;;;;;;3.00;0.82;;;;;;;19.93;43.51;98602.63;4937513;29;20111;-89
2023/10/29 01:27:35;;;;;;;3.88;0.98;;;;;;;19.93;43.52;98599.16;4938411;29;20090;-88
2023/10/29 01:30:02;;;;;;;3.53;0.80;;;;;;;19.86;43.56;98597.22;4921547;29;20031;-88
2023/10/29 01:32:28;;;;;;;6.32;1.23;;;;;;;19.82;43.57;98593.28;4921795;29;20098;-88
2023/10/29 01:34:55;;;;;;;3.60;1.08;;;;;;;19.77;43.78;98590.34;4922664;29;20118;-88
2023/10/29 01:37:20;;;;;;;2.10;0.57;;;;;;;19.72;43.44;98590.03;4939579;29;20058;-89
2023/10/29 01:39:46;;;;;;;4.07;1.00;;;;;;;19.69;43.80;98609.75;4938468;29;20039;-89
2023/10/29 01:42:11;;;;;;;4.57;1.00;;;;;;;19.68;43.87;98608.09;4938258;29;20058;-89
2023/10/29 01:44:37;;;;;;;4.45;0.80;;;;;;;19.64;44.04;98606.81;4937657;29;20407;-90
2023/10/29 01:47:03;;;;;;;3.13;0.80;;;;;;;19.62;44.11;98608.81;4937216;29;20510;-90
2023/10/29 01:49:28;;;;;;;6.20;1.00;;;;;;;19.59;44.22;98609.16;4921772;29;20070;-90
2023/10/29 01:51:54;;;;;;;1.50;0.70;;;;;;;19.53;44.07;98607.25;4921688;29;20074;-90
2023/10/29 01:54:20;;;;;;;4.63;1.10;;;;;;;19.50;44.24;98608.41;4937432;29;20431;-90
2023/10/29 01:56:46;;;;;;;4.80;1.08;;;;;;;19.47;44.41;98607.97;4921442;29;20391;-90
2023/10/29 01:59:13;;;;;;;2.83;0.75;;;;;;;19.53;44.37;98621.31;4921490;29;20038;-90
2023/10/29 02:01:39;;;;;;;7.45;1.15;;;;;;;19.41;44.70;98609.47;4921941;29;20055;-89
2023/10/29 02:04:08;;;;;;;1.50;0.50;;;;;;;19.40;44.74;98612.31;4937227;29;20473;-83
2023/10/29 02:06:41;;;;;;;4.85;1.17;;;;;;;19.43;44.67;98633.13;4921160;29;20479;-89
2023/10/29 02:09:09;;;;;;;3.55;1.20;;;;;;;19.33;44.77;98620.94;4953254;29;20039;-88
2023/10/29 02:11:39;;;;;;;3.13;0.85;;;;;;;19.32;44.90;98623.78;4906760;29;20412;-90
2023/10/29 02:14:06;;;;;;;5.50;0.80;;;;;;;19.35;44.78;98636.66;4937397;29;20029;-89
2023/10/29 02:16:31;;;;;;;2.78;0.80;;;;;;;19.30;44.82;98633.72;4921348;29;20031;-89
2023/10/29 02:18:58;;;;;;;3.92;0.75;;;;;;;19.25;44.94;98636.88;4921489;29;20142;-88
2023/10/29 02:21:24;;;;;;;2.70;0.90;;;;;;;19.22;44.98;98633.78;4937023;29;20063;-89
2023/10/29 02:23:53;;;;;;;3.83;0.85;;;;;;;19.23;45.46;98638.06;4921573;29;20548;-90
2023/10/29 02:26:19;;;;;;;3.58;0.98;;;;;;;19.17;45.06;98636.94;4937181;29;20043;-89
2023/10/29 02:28:45;;;;;;;3.25;1.02;;;;;;;19.16;45.18;98636.13;4921258;29;20033;-89
2023/10/29 02:31:20;;;;;;;3.45;0.80;;;;;;;19.20;45.44;98639.25;4937045;29;20097;-89
2023/10/29 02:33:47;;;;;;;4.93;1.00;;;;;;;19.15;45.57;98642.41;4922903;29;20039;-90
2023/10/29 02:36:13;;;;;;;1.80;0.60;;;;;;;19.11;45.56;98642.94;4941421;29;20046;-89
2023/10/29 02:38:40;;;;;;;4.57;1.00;;;;;;;19.11;45.48;98648.22;4925295;29;20115;-89
2023/10/29 02:41:05;;;;;;;3.50;0.88;;;;;;;19.08;45.56;98653.84;4940779;29;20478;-88
2023/10/29 02:43:32;;;;;;;3.42;0.82;;;;;;;19.00;46.13;98646.78;4957553;29;20038;-89
2023/10/29 02:45:57;;;;;;;3.17;0.85;;;;;;;19.07;46.00;98657.50;4940455;29;20486;-91
2023/10/29 02:48:24;;;;;;;8.90;1.15;;;;;;;18.99;46.11;98647.78;4937242;29;20063;-91
2023/10/29 02:50:51;;;;;;;2.53;0.60;;;;;;;18.96;46.20;98635.72;4937176;29;20423;-91
2023/10/29 02:53:17;;;;;;;2.25;1.00;;;;;;;19.02;46.23;98654.56;4937305;29;20451;-89
2023/10/29 02:55:43;;;;;;;2.10;0.73;;;;;;;18.98;46.18;98659.38;4937832;29;20028;-90
2023/10/29 02:58:09;;;;;;;2.08;0.70;;;;;;;18.94;46.23;98658.91;4921184;29;20027;-89
2023/10/29 03:00:35;;;;;;;3.17;1.00;;;;;;;18.84;46.07;98655.63;4937262;29;20046;-89
2023/10/29 03:03:00;;;;;;;2.65;0.57;;;;;;;18.94;46.14;98668.63;4921185;29;20035;-91
2023/10/29 03:05:28;;;;;;;2.60;0.90;;;;;;;18.77;45.97;98652.81;4921267;29;20042;-88
2023/10/29 03:07:53;;;;;;;4.18;0.80;;;;;;;18.87;46.08;98670.34;4936832;29;20470;-87
2023/10/29 03:10:19;;;;;;;3.58;1.08;;;;;;;18.78;46.10;98662.38;4936753;29;20048;-87
2023/10/29 03:12:44;;;;;;;3.03;0.90;;;;;;;18.86;46.15;98677.44;4936827;29;20046;-87
2023/10/29 03:15:12;;;;;;;4.80;0.80;;;;;;;18.81;46.24;98669.97;4920945;29;20125;-88
2023/10/29 03:17:39;;;;;;;3.60;1.00;;;;;;;18.81;46.08;98685.03;4920983;29;20411;-89
2023/10/29 03:20:05;;;;;;;2.60;0.80;;;;;;;18.76;46.26;98677.59;4952916;29;20109;-89
2023/10/29 03:22:31;;;;;;;4.00;1.05;;;;;;;18.77;46.19;98689.84;4905368;29;20051;-88
2023/10/29 03:24:57;;;;;;;2.15;0.57;;;;;;;18.71;46.43;98684.41;4920872;29;20486;-89
2023/10/29 03:27:23;;;;;;;4.68;0.70;;;;;;;18.70;46.67;98682.75;4936747;29;20040;-89
2023/10/29 03:29:49;;;;;;;3.78;0.80;;;;;;;18.72;46.62;98689.53;4936495;29;20028;-89
2023/10/29 03:32:16;;;;;;;2.58;0.73;;;;;;;18.69;46.64;98683.75;4936925;29;20071;-90
2023/10/29 03:34:42;;;;;;;3.92;0.60;;;;;;;18.62;46.39;98683.59;4936479;29;20055;-89
2023/10/29 03:37:09;;;;;;;2.55;0.80;;;;;;;18.67;46.73;98704.25;4936019;29;20094;-90
2023/10/29 03:39:34;;;;;;;2.38;1.00;;;;;;;18.62;46.59;98700.28;4936203;29;20035;-88
2023/10/29 03:42:02;;;;;;;4.03;0.70;;;;;;;18.61;46.67;98696.00;4920708;29;20103;-90
2023/10/29 03:44:30;;;;;;;3.13;0.93;;;;;;;18.60;46.90;98701.47;4935741;29;20030;-90
2023/10/29 03:46:55;;;;;;;6.55;1.10;;;;;;;18.61;46.92;98700.44;4937558;29;20545;-89
2023/10/29 03:49:21;;;;;;;1.98;0.80;;;;;;;18.61;47.02;98700.44;4936094;29;20142;-89
2023/10/29 03:51:48;;;;;;;3.83;0.90;;;;;;;18.65;47.04;98709.69;4936699;29;20395;-90
2023/10/29 03:54:13;;;;;;;3.10;1.08;;;;;;;18.59;47.13;98707.72;4920194;29;20031;-89
2023/10/29 03:56:39;;;;;;;2.58;0.82;;;;;;;18.62;47.06;98713.50;4919436;29;20039;-89
2023/10/29 03:59:05;;;;;;;2.78;0.90;;;;;;;18.60;47.19;98712.84;4936065;29;20040;-87
2023/10/29 04:01:31;;;;;;;3.42;1.10;;;;;;;18.62;47.18;98716.13;4935491;29;20467;-83
2023/10/29 04:03:58;;;;;;;5.50;0.90;;;;;;;18.61;47.49;98709.22;4935559;29;20075;-88
2023/10/29 04:06:23;;;;;;;1.90;0.73;;;;;;;18.66;47.36;98729.03;4935561;29;20036;-88
2023/10/29 04:08:49;;;;;;;3.20;0.95;;;;;;;18.57;47.30;98718.47;4935614;29;20027;-89
2023/10/29 04:11:15;;;;;;;3.78;1.02;;;;;;;18.58;47.49;98722.78;4936248;29;20027;-90
2023/10/29 04:13:41;;;;;;;2.45;0.93;;;;;;;18.55;47.15;98724.91;4935718;29;20028;-89
2023/10/29 04:16:06;;;;;;;3.22;1.00;;;;;;;18.56;47.16;98732.69;4935556;29;20038;-90
2023/10/29 04:18:33;;;;;;;2.10;0.90;;;;;;;18.49;47.44;98720.31;4935701;29;20043;-89
2023/10/29 04:21:02;;;;;;;3.58;0.82;;;;;;;18.48;47.35;98719.47;4932726;29;20042;-89
2023/10/29 04:23:28;;;;;;;4.32;0.98;;;;;;;18.45;47.76;98725.09;4946206;29;20089;-86
2023/10/29 04:25:53;;;;;;;3.92;1.00;;;;;;;18.44;47.81;98720.81;4947215;29;20035;-90
2023/10/29 04:28:19;;;;;;;4.70;1.23;;;;;;;18.44;47.71;98723.47;4925978;29;20028;-91
2023/10/29 04:30:45;;;;;;;5.03;1.10;;;;;;;18.38;48.00;98719.66;4939954;29;20036;-91
2023/10/29 04:33:10;;;;;;;4.35;1.33;;;;;;;18.41;47.78;98727.25;4940178;29;20059;-89
2023/10/29 04:35:36;;;;;;;4.78;1.30;;;;;;;18.39;47.79;98733.69;4922613;29;20039;-89
2023/10/29 04:38:04;;;;;;;3.40;0.93;;;;;;;18.36;47.77;98729.59;4937486;29;20051;-90
2023/10/29 04:40:30;;;;;;;4.43;1.30;;;;;;;18.34;47.87;98742.13;4938543;29;20031;-90
2023/10/29 04:42:56;;;;;;;3.67;1.25;;;;;;;18.37;47.92;98749.72;4937660;29;20043;-91
2023/10/29 04:45:23;;;;;;;4.47;1.10;;;;;;;18.26;47.74;98734.22;4937702;29;20028;-90
2023/10/29 04:47:49;;;;;;;3.97;1.27;;;;;;;18.32;47.95;98752.03;4939601;29;20064;-89
2023/10/29 04:50:14;;;;;;;4.03;1.38;;;;;;;18.34;48.12;98746.59;4939902;29;20521;-89
2023/10/29 04:52:40;;;;;;;2.80;1.20;;;;;;;18.31;48.21;98753.06;4938543;29;20039;-89
2023/10/29 04:55:06;;;;;;;3.53;1.20;;;;;;;18.29;47.96;98754.19;4941880;29;20032;-89
2023/10/29 04:57:35;;;;;;;3.42;1.45;;;;;;;18.36;48.13;98763.94;4944395;29;20011;-91
2023/10/29 05:00:01;;;;;;;5.30;1.33;;;;;;;18.33;47.97;98758.16;4943613;29;20027;-89
2023/10/29 05:02:27;;;;;;;3.80;1.15;;;;;;;18.40;48.35;98773.16;4940771;29;20031;-88
2023/10/29 05:04:55;;;;;;;3.10;1.38;;;;;;;18.46;48.31;98770.88;4923172;29;20024;-84
2023/10/29 05:07:21;;;;;;;4.40;1.67;;;;;;;18.59;48.18;98776.47;4941615;29;20036;-90
2023/10/29 05:09:46;;;;;;;4.47;1.55;;;;;;;18.67;47.97;98773.00;4926667;29;20086;-91
2023/10/29 05:12:16;;;;;;;4.18;1.42;;;;;;;18.91;47.07;98770.31;4924190;29;20039;-91
2023/10/29 05:14:43;;;;;;;5.03;1.80;;;;;;;19.23;46.41;98780.94;4925403;29;20040;-91
2023/10/29 05:17:10;;;;;;;5.03;1.50;;;;;;;19.44;45.62;98781.19;4927963;29;20035;-92
2023/10/29 05:19:39;;;;;;;4.90;1.50;;;;;;;19.67;44.94;98789.19;4930710;29;20040;-90
2023/10/29 05:22:10;;;;;;;3.70;1.30;;;;;;;19.88;44.67;98777.16;4931589;29;20059;-92
2023/10/29 05:24:35;;;;;;;9.20;1.50;;;;;;;20.21;44.08;98780.41;4943593;29;20043;-91
2023/10/29 05:27:02;;;;;;;4.03;1.40;;;;;;;20.60;43.57;98792.66;4935931;29;20562;-91
2023/10/29 05:29:32;;;;;;;4.75;1.67;;;;;;;20.87;42.70;98786.94;4926034;29;20067;-91
2023/10/29 05:32:00;;;;;;;10.43;1.40;;;;;;;21.10;42.22;98776.25;4938251;29;20051;-88
2023/10/29 05:34:26;;;;;;;6.40;1.40;;;;;;;21.49;41.62;98802.50;4938421;29;20122;-88
2023/10/29 05:37:17;;;;;;;3.92;1.35;;;;;;;21.85;40.93;98801.69;4941019;29;20066;-88
2023/10/29 05:39:55;;;;;;;4.40;1.40;;;;;;;22.09;40.50;98799.69;4914577;29;20171;-89
2023/10/29 05:42:22;;;;;;;3.80;1.30;;;;;;;22.39;39.82;98797.72;4943045;29;20086;-89
2023/10/29 05:44:47;;;;;;;5.32;1.30;;;;;;;22.76;39.64;98816.22;4937669;29;20471;-88
2023/10/29 05:47:16;;;;;;;7.05;1.95;;;;;;;23.19;39.15;98816.09;4938602;28;20040;-88
2023/10/29 05:49:42;;;;;;;6.15;1.63;;;;;;;23.67;38.35;98825.94;4972215;28;20031;-85
2023/10/29 05:52:08;;;;;;;6.35;1.70;;;;;;;24.22;37.28;98830.41;4938527;28;20030;-72
2023/10/29 05:54:33;;;;;;;4.00;1.52;;;;;;;24.68;36.77;98830.44;4972640;28;20486;-71
2023/10/29 05:56:59;;;;;;;5.03;1.92;;;;;;;25.16;35.89;98844.53;4939299;28;20039;-74
2023/10/29 05:59:25;;;;;;;15.10;1.67;;;;;;;25.55;35.29;98846.31;4956139;28;20033;-70
2023/10/29 06:01:51;;;;;;;10.43;1.50;;;;;;;25.95;35.49;98848.81;4956281;28;20035;-69
2023/10/29 06:04:16;;;;;;;15.65;2.10;;;;;;;26.36;33.84;98852.06;4939509;28;20034;-72
2023/10/29 06:06:42;;;;;;;7.25;1.60;;;;;;;26.76;33.66;98851.78;4946708;28;20505;-72
2023/10/29 06:09:07;;;;;;;9.60;1.70;;;;;;;27.14;33.16;98844.66;4959243;28;20042;-70
2023/10/29 06:11:33;;;;;;;10.40;1.50;;;;;;;27.50;32.73;98846.53;4943987;28;20059;-71
2023/10/29 06:13:59;;;;;;;15.07;2.20;;;;;;;27.97;32.15;98843.25;4959757;28;20042;-74
2023/10/29 06:16:24;;;;;;;14.48;1.80;;;;;;;28.42;31.76;98856.22;4930216;29;20035;-68
2023/10/29 06:18:50;;;;;;;7.47;1.70;;;;;;;29.07;30.53;98857.22;4940928;29;20082;-69
2023/10/29 06:21:18;;;;;;;6.28;1.50;;;;;;;29.66;29.40;98857.13;4957948;29;20470;-70
2023/10/29 06:23:43;;;;;;;;;;;;;;;30.19;27.75;98862.44;4944493;28;20031;-71
2023/10/29 06:26:09;;;;;;;9.43;1.50;;;;;;;30.79;26.00;98864.56;4943413;28;19917;-73
2023/10/29 06:28:34;;;;;;;7.65;1.83;;;;;;;31.48;24.65;98857.97;4959552;28;20039;-74
2023/10/29 06:31:00;;;;;;;10.82;1.52;;;;;;;32.15;23.52;98866.84;4959521;28;20037;-74
2023/10/29 06:33:25;;;;;;;7.82;1.30;;;;;;;32.95;22.97;98861.53;4943444;28;20532;-71
2023/10/29 06:35:51;;;;;;;6.43;1.50;;;;;;;33.39;22.56;98863.16;4975470;28;20038;-71
2023/10/29 06:38:17;;;;;;;6.20;1.20;;;;;;;33.65;21.73;98860.56;4959632;28;20051;-73
2023/10/29 06:40:42;;;;;;;9.25;1.63;;;;;;;33.30;21.98;98857.44;4975321;28;20034;-72
2023/10/29 06:43:08;;;;;;;7.72;1.40;;;;;;;32.50;22.98;98865.53;4959345;28;20486;-74
2023/10/29 06:45:34;;;;;;;7.10;1.48;;;;;;;32.80;22.70;98870.38;4942143;28;20098;-77
2023/10/29 06:48:00;;;;;;;10.60;1.83;;;;;;;33.26;22.20;98880.69;4940895;28;20141;-74
2023/10/29 06:50:25;;;;;;;6.30;1.77;;;;;;;33.91;21.37;98885.03;4943114;28;20110;-73
2023/10/29 06:52:51;;;;;;;10.55;2.05;;;;;;;33.06;22.05;98885.97;4943215;28;20042;-73
2023/10/29 06:55:16;;;;;;;16.45;1.90;;;;;;;33.04;22.60;98890.81;4942925;28;20069;-73
2023/10/29 06:57:42;;;;;;;8.65;1.90;;;;;;;32.55;23.31;98879.09;4943411;28;20083;-75
2023/10/29 07:00:09;;;;;;;9.13;2.28;;;;;;;34.75;20.99;98881.09;4943276;28;20513;-74
2023/10/29 07:02:35;;;;;;;8.25;2.10;;;;;;;35.80;19.80;98889.50;4943101;28;20110;-74
2023/10/29 07:05:01;;;;;;;9.45;2.08;;;;;;;36.10;19.13;98884.97;4958917;28;20023;-73
2023/10/29 07:07:28;;;;;;;8.27;1.88;;;;;;;34.30;20.45;98881.88;4958595;28;20042;-73
2023/10/29 07:09:55;;;;;;;11.27;2.10;;;;;;;33.89;21.50;98882.59;4959295;28;20030;-73
2023/10/29 07:12:20;;;;;;;8.00;2.15;;;;;;;34.22;21.48;98891.31;4926986;28;20042;-73
2023/10/29 07:14:46;;;;;;;11.88;2.60;;;;;;;34.01;20.85;98885.84;4976508;28;20142;-73
2023/10/29 07:17:11;;;;;;;11.73;3.28;;;;;;;33.95;21.22;98883.41;4942953;28;20034;-73
2023/10/29 07:19:38;;;;;;;12.65;3.20;;;;;;;33.76;21.20;98883.09;4972452;28;20037;-73
2023/10/29 07:22:04;;;;;;;13.80;2.03;;;;;;;33.68;23.74;98879.81;4975220;28;20041;-69
2023/10/29 07:24:29;;;;;;;13.10;2.70;;;;;;;33.79;23.64;98882.56;4936892;28;20026;-70
2023/10/29 07:26:54;;;;;;;11.68;2.80;;;;;;;33.85;23.19;98876.88;4975700;28;20486;-70
2023/10/29 07:29:20;;;;;;;6.75;2.53;;;;;;;33.82;22.50;98877.41;4975775;28;20043;-73
2023/10/29 07:31:47;;;;;;;18.85;2.75;;;;;;;33.92;23.20;98882.03;4974953;28;20039;-71
2023/10/29 07:34:13;;;;;;;6.57;2.87;;;;;;;33.88;22.08;98886.38;4958553;28;20039;-70
2023/10/29 07:36:39;;;;;;;9.35;3.05;;;;;;;33.84;21.85;98885.28;4958832;28;20038;-71
2023/10/29 07:39:04;;;;;;;8.50;2.95;;;;;;;33.80;21.91;98885.00;4950800;28;20410;-71
2023/10/29 07:41:30;;;;;;;8.65;2.45;;;;;;;33.61;21.84;98879.22;4958307;28;20505;-69
2023/10/29 07:43:55;;;;;;;7.70;2.90;;;;;;;33.58;22.28;98881.66;4941740;28;20565;-69
2023/10/29 07:46:21;;;;;;;10.50;4.18;;;;;;;33.51;23.16;98887.28;4975045;28;20054;-69
2023/10/29 07:48:46;;;;;;;14.07;4.40;;;;;;;33.29;22.76;98890.16;4971681;28;20453;-73
2023/10/29 07:51:12;;;;;;;14.02;5.78;;;;;;;33.41;23.66;98890.75;4969672;28;20036;-69
2023/10/29 07:53:38;;;;;;;11.05;2.90;;;;;;;33.49;22.87;98900.28;4923464;29;20399;-72
2023/10/29 07:56:07;;;;;;;12.18;2.80;;;;;;;33.34;22.26;98898.31;4927063;28;20022;-76
2023/10/29 07:58:32;;;;;;;11.10;2.10;;;;;;;33.39;22.39;98903.75;4957527;28;20154;-78
2023/10/29 08:00:58;;;;;;;7.85;2.42;;;;;;;33.33;22.20;98902.91;4958045;28;20030;-77
2023/10/29 08:03:23;;;;;;;8.13;3.13;;;;;;;33.18;21.35;98892.81;4940901;28;20116;-79
2023/10/29 08:05:52;;;;;;;9.43;3.00;;;;;;;33.31;21.75;98898.84;4933136;28;20070;-78
2023/10/29 08:08:18;;;;;;;17.88;2.22;;;;;;;33.35;21.66;98900.75;4922841;29;20403;-73
2023/10/29 08:10:44;;;;;;;11.43;2.30;;;;;;;33.41;21.97;98907.00;4950063;28;20134;-73
2023/10/29 08:13:10;;;;;;;9.48;2.30;;;;;;;33.49;22.24;98916.50;4910268;28;20050;-75
2023/10/29 08:15:38;;;;;;;7.22;2.08;;;;;;;33.38;22.20;98906.72;4952405;28;20387;-79
2023/10/29 08:18:04;;;;;;;9.75;1.90;;;;;;;33.60;21.74;98907.34;4941938;28;20097;-80
2023/10/29 08:20:30;;;;;;;7.68;1.65;;;;;;;33.50;21.05;98915.44;4970454;28;20474;-75
2023/10/29 08:22:56;;;;;;;6.18;1.90;;;;;;;33.09;22.15;98910.59;4929044;28;20164;-79
2023/10/29 08:25:21;;;;;;;7.75;2.00;;;;;;;33.54;21.53;98917.34;4961364;28;20117;-76
2023/10/29 08:27:47;;;;;;;8.93;1.80;;;;;;;33.57;21.30;98915.19;4941222;28;20042;-79
2023/10/29 08:30:12;;;;;;;8.95;2.10;;;;;;;33.48;20.89;98923.03;4957392;28;20039;-73
2023/10/29 08:32:38;;;;;;;7.43;1.67;;;;;;;33.58;20.82;98917.63;4962590;28;20035;-75
2023/10/29 08:35:06;;;;;;;6.85;2.13;;;;;;;33.66;21.45;98919.81;4938806;29;20475;-75
2023/10/29 08:37:34;;;;;;;8.27;2.45;;;;;;;33.72;20.60;98923.41;4959646;28;20113;-80
2023/10/29 08:39:59;;;;;;;10.60;2.00;;;;;;;33.76;20.63;98918.28;4939696;29;20046;-76
2023/10/29 08:42:28;;;;;;;8.65;2.20;;;;;;;34.13;21.06;98931.66;4938089;29;20391;-77
2023/10/29 08:44:58;;;;;;;7.95;2.08;;;;;;;34.50;19.80;98927.13;4923107;29;20454;-78
2023/10/29 08:47:23;;;;;;;4.75;1.70;;;;;;;34.65;19.95;98931.75;4939158;28;20059;-76
2023/10/29 08:49:50;;;;;;;10.10;2.17;;;;;;;35.18;20.75;98939.59;4923402;29;20054;-77
2023/10/29 08:52:17;;;;;;;8.90;2.13;;;;;;;36.01;18.81;98935.56;4922687;29;20049;-77
2023/10/29 08:54:43;;;;;;;9.13;2.05;;;;;;;36.56;18.01;98936.31;4923218;29;20031;-77
2023/10/29 08:57:08;;;;;;;11.75;2.13;;;;;;;36.74;17.67;98934.03;4923123;29;20122;-78
2023/10/29 08:59:34;;;;;;;5.35;2.22;;;;;;;36.19;18.37;98934.91;4922155;29;20182;-78
2023/10/29 09:02:00;;;;;;;4.47;2.05;;;;;;;37.33;17.15;98934.84;4939999;29;20043;-82
2023/10/29 09:04:26;;;;;;;5.95;1.98;;;;;;;38.01;17.46;98943.84;4907213;29;20032;-80
2023/10/29 09:06:51;;;;;;;11.25;2.30;;;;;;;36.30;19.40;98941.13;4922635;28;20426;-84
2023/10/29 09:09:17;;;;;;;9.40;2.05;;;;;;;37.19;17.78;98945.56;4922215;28;20038;-79
2023/10/29 09:11:44;;;;;;;16.02;2.80;;;;;;;37.81;18.49;98948.47;4956210;28;20031;-79
2023/10/29 09:14:13;;;;;;;7.95;2.13;;;;;;;37.83;18.67;98942.72;4955706;28;20043;-81
2023/10/29 09:16:40;;;;;;;9.48;2.40;;;;;;;37.58;18.97;98950.06;4957079;28;20043;-81
2023/10/29 09:19:06;;;;;;;5.28;2.10;;;;;;;37.62;18.83;98944.84;4956734;28;20034;-80
2023/10/29 09:21:31;;;;;;;11.10;2.38;;;;;;;37.62;18.61;98944.84;4957305;28;20043;-81
2023/10/29 09:23:57;;;;;;;11.70;3.60;;;;;;;36.56;19.94;98936.31;4973150;28;20097;-81
2023/10/29 09:26:22;;;;;;;5.35;2.20;;;;;;;36.83;19.93;98943.19;4940717;28;20051;-81
2023/10/29 09:28:48;;;;;;;8.60;2.63;;;;;;;37.11;19.56;98940.75;4973978;28;20034;-80
2023/10/29 09:31:17;;;;;;;7.20;2.17;;;;;;;37.33;19.30;98951.16;4941241;28;20125;-81
2023/10/29 09:33:43;;;;;;;7.63;3.33;;;;;;;37.44;18.67;98944.50;4974512;28;20030;-81
2023/10/29 09:36:09;;;;;;;9.50;2.53;;;;;;;37.49;19.00;98943.63;4956723;28;20055;-81
2023/10/29 09:38:34;;;;;;;5.85;2.40;;;;;;;37.56;19.25;98951.44;4940776;28;20125;-81
2023/10/29 09:41:00;;;;;;;4.65;1.95;;;;;;;37.63;18.83;98946.47;4940977;28;20089;-81
2023/10/29 09:43:26;;;;;;;5.88;2.00;;;;;;;37.64;18.68;98934.50;4940069;28;20035;-79
2023/10/29 09:45:52;;;;;;;9.52;2.15;;;;;;;37.61;18.68;98933.16;4972243;28;20034;-81
2023/10/29 09:48:17;;;;;;;11.57;2.55;;;;;;;37.55;18.83;98928.88;4941006;28;20062;-82
2023/10/29 09:50:43;;;;;;;8.90;1.92;;;;;;;37.46;19.15;98917.81;4941030;28;20023;-81
2023/10/29 09:53:10;;;;;;;6.28;2.05;;;;;;;37.40;19.04;98918.97;4957137;28;20458;-82
2023/10/29 09:55:36;;;;;;;5.95;1.63;;;;;;;37.33;17.77;98925.88;4957177;28;20031;-84
2023/10/29 09:58:03;;;;;;;3.67;1.60;;;;;;;37.15;19.04;98919.22;4940745;28;20052;-81
2023/10/29 10:00:28;;;;;;;4.57;1.52;;;;;;;37.09;19.11;98926.63;4941577;28;20084;-81
2023/10/29 10:02:57;;;;;;;8.48;1.80;;;;;;;37.00;19.50;98928.34;4940770;28;20039;-81
2023/10/29 10:05:27;;;;;;;3.30;1.35;;;;;;;36.83;19.20;98913.28;4957161;28;20027;-79
2023/10/29 10:07:53;;;;;;;3.05;1.45;;;;;;;36.73;19.49;98911.44;4941574;28;20474;-81
2023/10/29 10:10:22;;;;;;;4.18;1.55;;;;;;;36.65;19.57;98917.47;4942455;28;20038;-80
2023/10/29 10:12:48;;;;;;;5.13;1.48;;;;;;;36.47;19.56;98904.56;4957911;28;20472;-85
2023/10/29 10:15:16;;;;;;;4.53;1.35;;;;;;;36.35;19.81;98899.50;4940941;28;20034;-82
2023/10/29 10:17:57;;;;;;;4.18;1.30;;;;;;;36.18;19.24;98908.84;4941107;28;20074;-81
2023/10/29 10:20:23;;;;;;;6.05;1.30;;;;;;;35.88;18.67;98901.66;4926124;28;20569;-82
2023/10/29 10:22:58;;;;;;;3.42;1.15;;;;;;;35.72;19.60;98905.53;4956064;28;20135;-80
2023/10/29 10:25:24;;;;;;;5.45;1.38;;;;;;;35.48;20.04;98906.16;4940992;28;20414;-81
2023/10/29 10:27:51;;;;;;;3.28;1.10;;;;;;;35.33;20.21;98913.28;4941099;28;20550;-81
2023/10/29 10:30:36;;;;;;;3.20;1.30;;;;;;;35.15;20.53;98902.97;4940954;28;20057;-81
2023/10/29 10:33:15;;;;;;;5.28;1.33;;;;;;;34.99;20.68;98910.34;4942174;28;20035;-81
2023/10/29 10:35:45;;;;;;;5.03;1.10;;;;;;;34.88;21.00;98898.69;4940561;28;20027;-81
2023/10/29 10:38:11;;;;;;;4.47;1.02;;;;;;;34.85;20.90;98898.44;4955789;28;20042;-81
2023/10/29 10:40:37;;;;;;;2.83;1.20;;;;;;;34.72;21.27;98905.19;4955670;28;20043;-81
2023/10/29 10:43:04;;;;;;;4.47;1.10;;;;;;;34.55;21.34;98911.69;4956631;28;20093;-81
2023/10/29 10:45:29;;;;;;;4.82;1.13;;;;;;;34.33;20.22;98914.69;4939666;28;20050;-79
2023/10/29 10:47:59;;;;;;;4.72;1.00;;;;;;;34.02;21.84;98914.56;4936837;29;20063;-81
2023/10/29 10:50:24;;;;;;;3.10;1.20;;;;;;;33.65;21.84;98903.84;4937016;29;20086;-80
2023/10/29 10:52:51;;;;;;;4.30;1.20;;;;;;;33.44;22.35;98914.59;4936471;29;20042;-81
2023/10/29 10:55:17;;;;;;;6.70;1.15;;;;;;;33.13;22.01;98903.59;4954736;28;20462;-82
2023/10/29 10:57:44;;;;;;;3.00;1.10;;;;;;;32.76;22.89;98904.41;4955904;29;20031;-81
2023/10/29 11:00:13;;;;;;;4.47;1.17;;;;;;;32.59;22.82;98898.28;4924422;29;20180;-80
2023/10/29 11:02:39;;;;;;;5.00;1.05;;;;;;;32.49;23.38;98899.03;4956060;29;20037;-81
2023/10/29 11:05:07;;;;;;;5.00;1.17;;;;;;;32.30;23.73;98903.19;4955898;28;20043;-81
2023/10/29 11:07:33;;;;;;;3.28;1.02;;;;;;;32.21;23.57;98900.09;4940499;28;20027;-80
2023/10/29 11:09:59;;;;;;;3.67;1.08;;;;;;;32.16;23.98;98897.38;4939719;29;20505;-80
2023/10/29 11:12:24;;;;;;;4.43;0.85;;;;;;;32.16;23.81;98897.38;4955700;29;20062;-83
2023/10/29 11:15:15;;;;;;;4.93;1.27;;;;;;;32.03;24.09;98898.56;4939645;29;20035;-80
2023/10/29 11:18:03;;;;;;;3.53;1.30;;;;;;;32.03;24.06;98891.25;4956069;28;20074;-82
2023/10/29 11:20:41;;;;;;;;;;;;;;;32.09;23.98;98884.06;4956327;28;20035;-82
2023/10/29 11:23:27;;;;;;;3.08;1.13;;;;;;;32.09;24.13;98882.19;4971430;28;19918;-80
2023/10/29 11:26:23;;;;;;;3.90;1.20;;;;;;;31.99;24.37;98876.66;4955466;29;20027;-82
2023/10/29 11:28:49;;;;;;;4.57;1.15;;;;;;;31.86;24.39;98869.75;4953759;29;20043;-80
2023/10/29 11:31:16;;;;;;;6.05;1.40;;;;;;;31.73;23.56;98876.34;4939656;29;20038;-83